createdAt,value
2017-06-25T00:01:43.681Z,101213.81
2017-06-25T00:04:25.105Z,101213.32
2017-06-25T00:07:06.553Z,101206.20
2017-06-25T00:09:48.048Z,101217.91
2017-06-25T00:12:29.690Z,101212.45
2017-06-25T00:15:11.214Z,101205.72
2017-06-25T00:17:52.565Z,101198.16
2017-06-25T00:20:33.993Z,101194.98
2017-06-25T00:23:15.513Z,101199.52
2017-06-25T00:25:57.262Z,101190.06
2017-06-25T00:28:38.624Z,101187.86
2017-06-25T00:31:20.141Z,101192.39
2017-06-25T00:34:01.593Z,101188.72
2017-06-25T00:36:43.150Z,101187.42
2017-06-25T00:39:24.796Z,101184.24
2017-06-25T00:42:06.200Z,101187.92
2017-06-25T00:44:47.730Z,101185.16
2017-06-25T00:47:29.173Z,101180.25
2017-06-25T00:50:10.680Z,101182.95
2017-06-25T00:52:59.091Z,101176.69
2017-06-25T00:55:40.629Z,101179.39
2017-06-25T00:58:21.942Z,101178.10
2017-06-25T01:01:03.309Z,101178.53
2017-06-25T01:03:44.764Z,101177.19
2017-06-25T01:06:26.272Z,101168.11
2017-06-25T01:09:07.709Z,101170.92
2017-06-25T01:11:49.354Z,101165.47
2017-06-25T01:14:30.913Z,101166.39
2017-06-25T01:17:12.397Z,101169.52
2017-06-25T01:19:53.972Z,101164.61
2017-06-25T01:22:35.400Z,101167.37
2017-06-25T01:25:16.857Z,101162.89
2017-06-25T01:27:58.672Z,101157.44
2017-06-25T01:30:40.139Z,101158.35
2017-06-25T01:33:21.852Z,101163.75
2017-06-25T01:36:03.321Z,101154.36
2017-06-25T01:38:44.770Z,101156.20
2017-06-25T01:41:26.344Z,101145.84
2017-06-25T01:44:07.951Z,101157.48
2017-06-25T01:46:49.388Z,101154.36
2017-06-25T01:49:30.893Z,101153.94
2017-06-25T01:52:12.328Z,101150.80
2017-06-25T01:54:53.901Z,101152.52
2017-06-25T01:57:35.411Z,101156.20
2017-06-25T02:00:17.017Z,101140.07
2017-06-25T02:02:58.589Z,101148.22
2017-06-25T02:05:40.260Z,101140.12
2017-06-25T02:08:21.618Z,101139.75
2017-06-25T02:11:03.188Z,101139.27
2017-06-25T02:13:44.515Z,101139.76
2017-06-25T02:16:26.129Z,101140.19
2017-06-25T02:19:07.489Z,101127.19
2017-06-25T02:21:48.989Z,101130.30
2017-06-25T02:24:30.456Z,101128.53
2017-06-25T02:27:11.981Z,101126.27
2017-06-25T02:29:53.321Z,101128.53
2017-06-25T02:32:34.883Z,101126.81
2017-06-25T02:35:16.253Z,101126.38
2017-06-25T02:37:57.652Z,101123.25
2017-06-25T02:40:39.150Z,101123.62
2017-06-25T02:43:20.828Z,101129.94
2017-06-25T02:46:02.398Z,101115.59
2017-06-25T02:48:43.993Z,101117.42
2017-06-25T02:51:25.525Z,101119.75
2017-06-25T02:54:07.037Z,101119.63
2017-06-25T02:56:48.677Z,101122.88
2017-06-25T02:59:30.125Z,101126.92
2017-06-25T03:02:11.576Z,101126.50
2017-06-25T03:04:53.196Z,101124.72
2017-06-25T03:07:34.713Z,101117.05
2017-06-25T03:10:16.268Z,101117.97
2017-06-25T03:12:57.877Z,101124.28
2017-06-25T03:15:39.361Z,101118.40
2017-06-25T03:18:20.884Z,101117.54
2017-06-25T03:21:02.365Z,101117.54
2017-06-25T03:23:43.873Z,101115.77
2017-06-25T03:26:25.292Z,101117.72
2017-06-25T03:29:06.875Z,101123.05
2017-06-25T03:31:48.349Z,101123.91
2017-06-25T03:34:29.785Z,101115.45
2017-06-25T03:37:11.388Z,101123.48
2017-06-25T03:39:53.000Z,101120.23
2017-06-25T03:42:34.628Z,101119.87
2017-06-25T03:45:16.087Z,101114.10
2017-06-25T03:47:57.490Z,101113.19
2017-06-25T03:50:38.980Z,101107.84
2017-06-25T04:03:11.037Z,101118.47
2017-06-25T04:05:52.593Z,101115.89
2017-06-25T04:08:34.092Z,101117.56
2017-06-25T04:11:15.548Z,101106.05
2017-06-25T04:13:57.007Z,101108.08
2017-06-25T04:16:38.349Z,101113.33
2017-06-25T04:19:19.957Z,101111.92
2017-06-25T04:22:01.461Z,101110.08
2017-06-25T04:24:42.936Z,101109.36
2017-06-25T04:27:24.482Z,101113.03
2017-06-25T04:30:06.052Z,101115.24
2017-06-25T04:32:47.345Z,101125.55
2017-06-25T04:35:28.693Z,101120.95
2017-06-25T04:38:10.225Z,101113.83
2017-06-25T04:40:51.960Z,101120.95
2017-06-25T04:43:33.580Z,101114.14
2017-06-25T04:46:15.407Z,101116.78
2017-06-25T04:48:56.931Z,101124.51
2017-06-25T04:51:38.272Z,101113.66
2017-06-25T04:54:19.675Z,101119.11
2017-06-25T04:57:01.226Z,101112.25
2017-06-25T04:59:42.788Z,101113.54
2017-06-25T05:02:24.145Z,101114.89
2017-06-25T05:05:05.616Z,101115.44
2017-06-25T05:07:47.217Z,101120.72
2017-06-25T05:10:28.714Z,101114.95
2017-06-25T05:13:10.176Z,101119.80
2017-06-25T05:15:51.664Z,101122.98
2017-06-25T05:18:33.033Z,101118.99
2017-06-25T05:21:14.921Z,101123.10
2017-06-25T05:23:56.068Z,101127.69
2017-06-25T05:26:37.364Z,101125.86
2017-06-25T05:29:18.908Z,101127.64
2017-06-25T05:32:00.407Z,101128.50
2017-06-25T05:34:41.783Z,101118.13
2017-06-25T05:37:23.149Z,101127.52
2017-06-25T05:40:04.679Z,101128.86
2017-06-25T05:42:46.228Z,101123.47
2017-06-25T05:45:28.010Z,101124.33
2017-06-25T05:48:09.322Z,101132.80
2017-06-25T05:50:50.815Z,101128.31
2017-06-25T05:53:32.652Z,101134.69
2017-06-25T05:56:13.768Z,101128.75
2017-06-25T05:58:55.163Z,101135.49
2017-06-25T06:01:36.900Z,101135.55
2017-06-25T06:04:18.185Z,101133.34
2017-06-25T06:06:59.665Z,101141.00
2017-06-25T06:09:41.129Z,101135.55
2017-06-25T06:12:22.753Z,101132.97
2017-06-25T06:15:04.250Z,101141.38
2017-06-25T06:17:45.725Z,101138.63
2017-06-25T06:30:17.608Z,101138.27
2017-06-25T06:32:59.213Z,101139.73
2017-06-25T06:35:40.689Z,101135.58
2017-06-25T06:38:22.185Z,101145.16
2017-06-25T06:41:03.844Z,101142.34
2017-06-25T06:43:45.284Z,101139.44
2017-06-25T06:46:26.664Z,101143.86
2017-06-25T06:49:08.205Z,101154.97
2017-06-25T06:51:49.689Z,101153.75
2017-06-25T06:54:31.189Z,101154.73
2017-06-25T06:57:12.678Z,101152.28
2017-06-25T06:59:54.263Z,101151.37
2017-06-25T07:02:35.978Z,101152.66
2017-06-25T07:05:17.520Z,101159.89
2017-06-25T07:07:59.053Z,101154.16
2017-06-25T07:10:40.664Z,101153.48
2017-06-25T07:13:22.061Z,101161.45
2017-06-25T07:16:03.696Z,101158.87
2017-06-25T07:18:45.284Z,101159.88
2017-06-25T07:21:26.729Z,101163.78
2017-06-25T07:24:08.300Z,101171.20
2017-06-25T07:26:49.631Z,101165.33
2017-06-25T07:29:31.209Z,101162.69
2017-06-25T07:32:12.715Z,101164.70
2017-06-25T07:34:54.112Z,101166.42
2017-06-25T07:37:35.467Z,101170.55
2017-06-25T07:40:16.951Z,101164.34
2017-06-25T07:42:58.281Z,101176.17
2017-06-25T07:45:39.824Z,101180.34
2017-06-25T07:48:21.346Z,101179.10
2017-06-25T07:51:02.739Z,101187.70
2017-06-25T07:53:44.338Z,101189.34
2017-06-25T07:56:25.679Z,101189.66
2017-06-25T07:59:07.229Z,101189.55
2017-06-25T08:01:48.678Z,101183.38
2017-06-25T08:04:30.204Z,101189.20
2017-06-25T08:07:11.563Z,101197.55
2017-06-25T08:09:53.009Z,101194.05
2017-06-25T08:12:34.555Z,101186.15
2017-06-25T08:15:15.945Z,101180.14
2017-06-25T08:17:57.478Z,101187.92
2017-06-25T08:20:38.929Z,101187.13
2017-06-25T08:23:20.453Z,101205.00
2017-06-25T08:26:01.649Z,101206.78
2017-06-25T08:28:43.430Z,101205.75
2017-06-25T08:31:25.149Z,101203.48
2017-06-25T08:34:06.490Z,101205.27
2017-06-25T08:36:48.067Z,101219.04
2017-06-25T08:39:29.527Z,101212.81
2017-06-25T08:42:10.929Z,101215.63
2017-06-25T08:44:52.416Z,101220.30
2017-06-25T08:47:34.552Z,101217.68
2017-06-25T08:50:16.548Z,101215.98
2017-06-25T08:52:58.322Z,101223.22
2017-06-25T08:55:39.649Z,101216.47
2017-06-25T08:58:20.992Z,101212.30
2017-06-25T09:01:02.588Z,101212.59
2017-06-25T09:03:44.217Z,101219.11
2017-06-25T09:06:25.553Z,101221.92
2017-06-25T09:09:06.910Z,101222.91
2017-06-25T09:11:48.597Z,101223.17
2017-06-25T09:14:30.002Z,101228.66
2017-06-25T09:17:11.748Z,101218.78
2017-06-25T09:19:53.054Z,101224.17
2017-06-25T09:22:34.449Z,101221.83
2017-06-25T09:25:15.837Z,101228.82
2017-06-25T09:27:57.351Z,101222.81
2017-06-25T09:30:38.901Z,101228.09
2017-06-25T09:33:20.514Z,101232.13
2017-06-25T09:36:01.789Z,101229.55
2017-06-25T09:38:43.194Z,101233.26
2017-06-25T09:41:24.801Z,101244.08
2017-06-25T09:44:06.226Z,101240.67
2017-06-25T09:46:47.485Z,101242.67
2017-06-25T09:49:29.010Z,101243.36
2017-06-25T09:52:10.630Z,101252.31
2017-06-25T09:54:52.024Z,101249.83
2017-06-25T09:57:33.433Z,101253.55
2017-06-25T10:00:14.912Z,101254.95
2017-06-25T10:02:56.458Z,101270.47
2017-06-25T10:05:38.088Z,101267.64
2017-06-25T10:08:19.578Z,101278.64
2017-06-25T10:11:01.198Z,101271.05
2017-06-25T10:13:42.481Z,101286.39
2017-06-25T10:16:23.953Z,101278.58
2017-06-25T10:19:05.408Z,101283.10
2017-06-25T10:21:46.873Z,101278.85
2017-06-25T10:24:28.259Z,101276.97
2017-06-25T10:27:09.758Z,101278.33
2017-06-25T10:29:51.211Z,101286.62
2017-06-25T10:32:32.663Z,101292.34
2017-06-25T10:35:14.100Z,101300.53
2017-06-25T10:37:55.789Z,101301.98
2017-06-25T10:40:37.261Z,101300.58
2017-06-25T10:43:18.821Z,101296.72
2017-06-25T10:46:00.173Z,101306.57
2017-06-25T10:48:41.746Z,101303.50
2017-06-25T10:51:23.102Z,101308.94
2017-06-25T10:54:04.588Z,101302.30
2017-06-25T10:56:45.905Z,101302.30
2017-06-25T10:59:27.239Z,101304.45
2017-06-25T11:02:08.773Z,101309.73
2017-06-25T11:04:50.168Z,101310.29
2017-06-25T11:07:31.547Z,101309.38
2017-06-25T11:10:13.050Z,101299.62
2017-06-25T11:12:54.489Z,101311.61
2017-06-25T11:15:35.804Z,101316.75
2017-06-25T11:18:17.175Z,101322.09
2017-06-25T11:20:58.695Z,101318.75
2017-06-25T11:23:40.180Z,101324.41
2017-06-25T11:26:21.552Z,101327.11
2017-06-25T11:29:02.990Z,101319.94
2017-06-25T11:31:44.699Z,101323.59
2017-06-25T11:34:26.184Z,101317.67
2017-06-25T11:37:07.590Z,101317.56
2017-06-25T11:39:48.970Z,101318.10
2017-06-25T11:42:30.729Z,101315.00
2017-06-25T11:45:12.029Z,101328.53
2017-06-25T11:47:53.438Z,101331.90
2017-06-25T11:50:34.938Z,101336.67
2017-06-25T11:53:16.296Z,101345.95
2017-06-25T11:55:57.798Z,101337.05
2017-06-25T11:58:39.297Z,101349.94
2017-06-25T12:01:20.749Z,101350.96
2017-06-25T12:04:02.281Z,101349.83
2017-06-25T12:06:43.675Z,101351.23
2017-06-25T12:09:25.152Z,101348.91
2017-06-25T12:12:06.565Z,101350.50
2017-06-25T12:14:48.057Z,101342.57
2017-06-25T12:17:29.380Z,101343.76
2017-06-25T12:20:11.009Z,101338.69
2017-06-25T12:22:52.457Z,101339.23
2017-06-25T12:25:33.910Z,101343.53
2017-06-25T12:28:15.456Z,101356.53
2017-06-25T12:30:56.933Z,101351.95
2017-06-25T12:33:38.363Z,101345.16
2017-06-25T12:36:19.976Z,101347.20
2017-06-25T12:39:01.511Z,101341.86
2017-06-25T12:41:43.282Z,101346.70
2017-06-25T12:44:24.926Z,101343.80
2017-06-25T12:47:06.206Z,101329.80
2017-06-25T12:49:47.657Z,101330.65
2017-06-25T12:52:29.009Z,101331.51
2017-06-25T12:55:10.289Z,101330.48
2017-06-25T12:57:51.935Z,101327.84
2017-06-25T13:00:33.413Z,101334.00
2017-06-25T13:03:14.770Z,101330.66
2017-06-25T13:05:56.102Z,101326.67
2017-06-25T13:08:37.643Z,101327.41
2017-06-25T13:11:19.091Z,101320.40
2017-06-25T13:14:00.717Z,101326.13
2017-06-25T13:16:42.302Z,101333.61
2017-06-25T13:19:23.991Z,101326.16
2017-06-25T13:22:05.682Z,101327.68
2017-06-25T13:24:47.236Z,101333.95
2017-06-25T13:27:28.585Z,101340.42
2017-06-25T13:30:10.074Z,101334.70
2017-06-25T13:32:51.573Z,101337.72
2017-06-25T13:35:33.061Z,101336.64
2017-06-25T13:38:14.534Z,101333.02
2017-06-25T13:40:55.944Z,101338.95
2017-06-25T13:43:37.430Z,101337.98
2017-06-25T13:46:18.960Z,101343.80
2017-06-25T13:49:00.462Z,101329.79
2017-06-25T13:51:41.764Z,101334.91
2017-06-25T13:54:23.068Z,101330.92
2017-06-25T13:57:04.644Z,101331.41
2017-06-25T13:59:46.010Z,101336.89
2017-06-25T14:02:27.453Z,101331.45
2017-06-25T14:05:08.910Z,101330.36
2017-06-25T14:07:50.539Z,101326.19
2017-06-25T14:10:32.037Z,101330.73
2017-06-25T14:13:13.494Z,101328.75
2017-06-25T14:15:55.084Z,101332.43
2017-06-25T14:18:36.395Z,101327.91
2017-06-25T14:21:17.838Z,101327.73
2017-06-25T14:23:59.516Z,101312.16
2017-06-25T14:26:41.086Z,101321.37
2017-06-25T14:29:22.666Z,101318.51
2017-06-25T14:32:04.125Z,101311.59
2017-06-25T14:34:45.497Z,101309.61
2017-06-25T14:37:26.881Z,101308.00
2017-06-25T14:40:08.248Z,101316.31
2017-06-25T14:42:49.872Z,101314.48
2017-06-25T14:45:31.348Z,101313.48
2017-06-25T14:48:12.689Z,101317.27
2017-06-25T14:50:54.241Z,101308.75
2017-06-25T14:53:35.570Z,101303.01
2017-06-25T14:56:17.205Z,101303.01
2017-06-25T14:58:58.653Z,101304.02
2017-06-25T15:01:40.341Z,101301.92
2017-06-25T15:04:21.933Z,101308.20
2017-06-25T15:07:03.585Z,101303.14
2017-06-25T15:09:45.032Z,101299.77
2017-06-25T15:12:26.413Z,101312.97
2017-06-25T15:15:07.857Z,101297.61
2017-06-25T15:17:49.594Z,101297.66
2017-06-25T15:20:31.145Z,101298.95
2017-06-25T15:23:12.481Z,101300.78
2017-06-25T15:25:53.869Z,101296.31
2017-06-25T15:28:35.266Z,101298.24
2017-06-25T15:31:16.704Z,101295.87
2017-06-25T15:33:58.233Z,101292.13
2017-06-25T15:36:39.677Z,101290.30
2017-06-25T15:39:21.195Z,101280.59
2017-06-25T15:42:02.525Z,101283.19
2017-06-25T15:44:44.163Z,101281.63
2017-06-25T15:47:25.757Z,101291.11
2017-06-25T15:50:06.874Z,101285.17
2017-06-25T15:52:48.281Z,101284.20
2017-06-25T15:55:29.799Z,101282.98
2017-06-25T15:58:11.410Z,101277.31
2017-06-25T16:00:52.878Z,101280.38
2017-06-25T16:03:34.534Z,101280.16
2017-06-25T16:06:15.939Z,101273.90
2017-06-25T16:08:57.411Z,101268.22
2017-06-25T16:11:38.866Z,101277.57
2017-06-25T16:14:20.258Z,101280.38
2017-06-25T16:17:01.909Z,101281.52
2017-06-25T16:19:43.373Z,101273.92
2017-06-25T16:22:24.529Z,101273.43
2017-06-25T16:25:06.111Z,101266.41
2017-06-25T16:27:47.616Z,101264.29
2017-06-25T16:30:28.990Z,101264.17
2017-06-25T16:33:10.354Z,101259.76
2017-06-25T16:35:51.885Z,101258.98
2017-06-25T16:38:33.499Z,101258.55
2017-06-25T16:41:15.029Z,101259.79
2017-06-25T16:43:56.609Z,101255.86
2017-06-25T16:46:38.270Z,101263.52
2017-06-25T16:49:19.905Z,101255.54
2017-06-25T16:52:01.361Z,101260.39
2017-06-25T16:54:43.009Z,101258.89
2017-06-25T16:57:24.540Z,101256.74
2017-06-25T17:00:06.248Z,101262.94
2017-06-25T17:02:47.731Z,101264.41
2017-06-25T17:05:29.256Z,101262.66
2017-06-25T17:08:10.592Z,101265.94
2017-06-25T17:10:52.060Z,101263.66
2017-06-25T17:13:33.404Z,101265.13
2017-06-25T17:16:15.040Z,101258.21
2017-06-25T17:18:56.490Z,101265.31
2017-06-25T17:21:37.569Z,101260.89
2017-06-25T17:24:19.271Z,101257.41
2017-06-25T17:27:00.741Z,101260.05
2017-06-25T17:29:42.325Z,101258.44
2017-06-25T17:32:23.943Z,101250.63
2017-06-25T17:35:05.491Z,101256.91
2017-06-25T17:37:47.305Z,101253.73
2017-06-25T17:40:28.646Z,101250.17
2017-06-25T17:43:10.074Z,101250.08
2017-06-25T17:45:51.369Z,101247.01
2017-06-25T17:48:32.721Z,101243.56
2017-06-25T17:51:14.172Z,101244.69
2017-06-25T17:53:55.633Z,101241.67
2017-06-25T17:56:38.082Z,101236.09
2017-06-25T17:59:19.565Z,101233.34
2017-06-25T18:02:01.031Z,101245.97
2017-06-25T18:04:42.754Z,101235.26
2017-06-25T18:07:24.033Z,101235.91
2017-06-25T18:10:05.326Z,101224.21
2017-06-25T18:12:46.705Z,101223.14
2017-06-25T18:15:28.070Z,101231.72
2017-06-25T18:18:09.628Z,101224.66
2017-06-25T18:20:50.756Z,101226.42
2017-06-25T18:23:32.214Z,101227.55
2017-06-25T18:26:13.744Z,101230.59
2017-06-25T18:28:55.458Z,101229.73
2017-06-25T18:31:36.708Z,101227.36
2017-06-25T18:34:18.158Z,101227.98
2017-06-25T18:36:59.687Z,101223.83
2017-06-25T18:39:41.239Z,101224.25
2017-06-25T18:42:22.750Z,101222.91
2017-06-25T18:45:04.182Z,101219.03
2017-06-25T18:47:45.757Z,101225.12
2017-06-25T18:50:27.348Z,101218.05
2017-06-25T18:53:08.772Z,101219.45
2017-06-25T18:55:50.328Z,101213.52
2017-06-25T19:16:38.463Z,101209.77
2017-06-25T19:19:20.185Z,101211.28
2017-06-25T19:22:01.466Z,101212.31
2017-06-25T19:24:43.235Z,101206.17
2017-06-25T19:27:24.757Z,101212.85
2017-06-25T19:37:21.412Z,101210.27
2017-06-25T19:40:03.230Z,101214.73
2017-06-25T19:42:44.746Z,101214.41
2017-06-25T19:52:57.878Z,101220.59
2017-06-25T19:55:39.377Z,101227.88
2017-06-25T20:12:49.735Z,101227.99
2017-06-25T20:33:37.187Z,101227.28
2017-06-25T20:36:18.892Z,101235.26
2017-06-25T20:39:00.222Z,101237.95
2017-06-25T20:41:41.445Z,101235.47
2017-06-25T20:55:14.877Z,101232.28
2017-06-25T20:57:56.079Z,101228.94
2017-06-25T21:11:51.040Z,101237.52
2017-06-25T21:32:38.641Z,101236.59
2017-06-25T21:35:19.974Z,101241.23
2017-06-25T21:38:01.161Z,101245.97
2017-06-25T21:40:42.832Z,101242.08
2017-06-25T21:43:24.425Z,101240.84
2017-06-25T21:53:20.572Z,101243.00
2017-06-25T21:56:01.929Z,101243.62
2017-06-25T21:58:43.435Z,101241.73
2017-06-25T22:12:24.920Z,101237.41
2017-06-25T22:33:12.597Z,101229.66
2017-06-25T22:35:53.995Z,101224.33
2017-06-25T22:38:35.404Z,101227.39
2017-06-25T22:41:17.049Z,101221.46
2017-06-25T22:54:50.128Z,101233.33
2017-06-25T22:57:31.598Z,101227.62
2017-06-25T23:11:22.037Z,101232.52
2017-06-25T23:32:10.280Z,101235.89
2017-06-25T23:34:51.769Z,101240.80
2017-06-25T23:37:33.430Z,101240.80
2017-06-25T23:40:14.857Z,101242.45
2017-06-25T23:42:56.892Z,101237.53
2017-06-25T23:52:53.927Z,101231.30
2017-06-25T23:55:35.400Z,101236.27
2017-06-25T23:58:17.007Z,101239.39
